Time;durP1;ratioP1;P1;durP2;ratioP2;P2;SDS_P1;SDS_P2;PMS_P1;PMS_P2;Temp;Humidity;BMP_temperature;BMP_pressure;BME280_temperature;BME280_humidity;BME280_pressure;Samples;Min_cycle;Max_cycle;Signal;HPM_P1;HPM_P2
2021/12/03 00:04:21;;;;;;;;;;;;;;;9.85;100.00;100200.53;6055999;23;20068;-84
2021/12/03 00:07:54;;;;;;;0.40;0.40;;;;;;;9.85;100.00;100190.63;6132979;23;19908;-88
2021/12/03 00:10:23;;;;;;;0.30;0.30;;;;;;;9.82;100.00;100196.38;6155936;23;20013;-88
2021/12/03 00:12:58;;;;;;;0.30;0.30;;;;;;;9.77;100.00;100177.28;6131344;23;20017;-88
2021/12/03 00:16:03;;;;;;;0.30;0.30;;;;;;;9.79;100.00;100186.00;6132243;23;20005;-88
2021/12/03 00:18:29;;;;;;;0.20;0.20;;;;;;;9.78;100.00;100188.88;6155692;23;20295;-87
2021/12/03 00:21:04;;;;;;;0.30;0.30;;;;;;;9.67;100.00;100172.19;6107039;23;20017;-89
2021/12/03 00:23:34;;;;;;;0.30;0.30;;;;;;;9.63;100.00;100170.06;6106271;23;20016;-85
2021/12/03 00:26:07;;;;;;;0.20;0.20;;;;;;;9.60;100.00;100173.09;6132498;23;20013;-85
2021/12/03 00:28:39;;;;;;;0.30;0.30;;;;;;;9.60;100.00;100186.53;6135201;23;20016;-89
2021/12/03 00:31:17;;;;;;;0.30;0.30;;;;;;;9.51;100.00;100193.00;6137003;23;20005;-88
2021/12/03 00:33:43;;;;;;;0.30;0.30;;;;;;;9.54;100.00;100198.84;6157718;23;20005;-86
2021/12/03 00:36:10;;;;;;;0.30;0.30;;;;;;;9.48;100.00;100182.66;6156820;23;20043;-88
2021/12/03 00:38:40;;;;;;;0.40;0.40;;;;;;;9.48;100.00;100188.00;6132767;23;20467;-84
2021/12/03 00:41:12;;;;;;;0.30;0.30;;;;;;;9.44;100.00;100198.25;6156716;23;20337;-87
2021/12/03 00:43:42;;;;;;;0.30;0.30;;;;;;;9.38;100.00;100191.78;6108098;23;20337;-86
2021/12/03 00:46:09;;;;;;;0.40;0.40;;;;;;;9.38;100.00;100194.44;6182789;23;20458;-87
2021/12/03 00:48:35;;;;;;;0.30;0.30;;;;;;;9.31;100.00;100181.94;6157542;23;20337;-85
2021/12/03 00:51:01;;;;;;;0.30;0.30;;;;;;;9.31;100.00;100179.25;6157044;23;20005;-84
2021/12/03 00:53:27;;;;;;;0.30;0.30;;;;;;;9.27;100.00;100178.81;6132497;23;20024;-85
2021/12/03 00:55:52;;;;;;;0.30;0.30;;;;;;;9.25;100.00;100160.19;6157358;23;20080;-85
2021/12/03 00:58:18;;;;;;;0.30;0.30;;;;;;;9.27;100.00;100160.03;6157121;23;20005;-87
2021/12/03 01:00:44;;;;;;;0.30;0.30;;;;;;;9.24;100.00;100161.22;6184013;23;20432;-85
2021/12/03 01:03:09;;;;;;;0.30;0.30;;;;;;;9.24;100.00;100155.84;6107652;23;20020;-85
2021/12/03 01:05:35;;;;;;;0.30;0.30;;;;;;;9.21;100.00;100152.72;6157334;23;20036;-88
2021/12/03 01:08:01;;;;;;;0.30;0.30;;;;;;;9.19;100.00;100163.63;6108007;23;20467;-86
2021/12/03 01:10:27;;;;;;;0.38;0.38;;;;;;;9.11;100.00;100144.91;6157603;23;20471;-87
2021/12/03 01:13:18;;;;;;;0.30;0.30;;;;;;;9.05;100.00;100131.38;6107206;23;20008;-86
2021/12/03 01:15:53;;;;;;;0.30;0.30;;;;;;;8.96;100.00;100125.25;6132945;23;20009;-89
2021/12/03 01:18:47;;;;;;;0.30;0.30;;;;;;;8.88;100.00;100128.84;6109211;23;20425;-87
2021/12/03 01:21:14;;;;;;;0.30;0.30;;;;;;;8.81;100.00;100138.59;6131992;23;20015;-87
2021/12/03 01:24:10;;;;;;;0.30;0.30;;;;;;;8.80;100.00;100151.19;6157568;23;20461;-88
2021/12/03 01:27:24;;;;;;;0.40;0.40;;;;;;;8.67;100.00;100156.31;6134258;23;20009;-87
2021/12/03 01:30:13;;;;;;;0.30;0.30;;;;;;;8.58;100.00;100146.66;6154724;23;20016;-87
2021/12/03 01:32:45;;;;;;;0.40;0.40;;;;;;;8.51;100.00;100130.44;6086031;23;20043;-87
2021/12/03 01:35:15;;;;;;;0.30;0.30;;;;;;;8.46;100.00;100129.31;6132453;23;20016;-86
2021/12/03 01:37:41;;;;;;;0.30;0.30;;;;;;;8.47;100.00;100147.09;6107109;23;20020;-86
2021/12/03 01:40:17;;;;;;;0.20;0.20;;;;;;;8.39;100.00;100137.25;6157243;23;20032;-85
2021/12/03 01:42:45;;;;;;;0.20;0.20;;;;;;;8.33;100.00;100140.56;6156044;23;20016;-87
2021/12/03 01:45:17;;;;;;;0.30;0.30;;;;;;;8.26;100.00;100151.19;6132747;23;20037;-86
2021/12/03 01:47:45;;;;;;;0.30;0.30;;;;;;;8.19;100.00;100179.66;6108017;23;20016;-87
2021/12/03 01:50:11;;;;;;;0.30;0.30;;;;;;;8.09;100.00;100200.47;6108576;23;20515;-87
2021/12/03 01:52:38;;;;;;;0.30;0.30;;;;;;;7.99;100.00;100203.34;6107146;23;20017;-86
2021/12/03 01:55:06;;;;;;;0.40;0.40;;;;;;;7.96;100.00;100197.50;6132769;23;19997;-87
2021/12/03 01:57:32;;;;;;;0.30;0.30;;;;;;;7.93;100.00;100204.84;6132400;23;20001;-87
2021/12/03 01:59:57;;;;;;;0.30;0.30;;;;;;;7.87;100.00;100205.56;6157132;23;20019;-90
2021/12/03 02:02:24;;;;;;;0.30;0.30;;;;;;;7.82;100.00;100201.72;6132243;23;20373;-86
2021/12/03 02:04:52;;;;;;;0.30;0.30;;;;;;;7.83;100.00;100192.69;6131705;23;20084;-86
2021/12/03 02:07:19;;;;;;;0.30;0.30;;;;;;;7.92;100.00;100197.00;6132737;23;20008;-86
2021/12/03 02:09:48;;;;;;;0.40;0.40;;;;;;;7.92;100.00;100191.66;6107276;23;20009;-87
2021/12/03 02:12:16;;;;;;;0.30;0.30;;;;;;;7.96;100.00;100192.97;6131978;23;20017;-87
2021/12/03 02:15:09;;;;;;;0.30;0.30;;;;;;;7.94;100.00;100195.00;6113005;23;20441;-88
2021/12/03 02:17:34;;;;;;;0.40;0.40;;;;;;;7.95;100.00;100209.22;6156200;23;20036;-86
2021/12/03 02:20:21;;;;;;;0.30;0.30;;;;;;;7.84;100.00;100205.06;6156345;23;20009;-86
2021/12/03 02:22:49;;;;;;;0.30;0.30;;;;;;;7.84;100.00;100221.97;6133147;23;20004;-87
2021/12/03 02:25:21;;;;;;;0.40;0.40;;;;;;;7.72;100.00;100218.78;6132309;23;20370;-86
2021/12/03 02:27:52;;;;;;;0.30;0.30;;;;;;;7.67;100.00;100204.25;6131841;23;20005;-87
2021/12/03 02:30:19;;;;;;;0.30;0.30;;;;;;;7.64;100.00;100201.91;6108060;23;20005;-86
2021/12/03 02:32:46;;;;;;;0.32;0.32;;;;;;;7.61;100.00;100197.75;6131467;23;20001;-87
2021/12/03 02:35:13;;;;;;;0.40;0.40;;;;;;;7.65;100.00;100193.75;6156722;23;20009;-86
2021/12/03 02:37:39;;;;;;;0.40;0.40;;;;;;;7.66;100.00;100202.59;6156217;23;20019;-87
2021/12/03 02:40:06;;;;;;;0.40;0.40;;;;;;;7.62;100.00;100194.09;6156436;23;20038;-88
2021/12/03 02:42:35;;;;;;;0.30;0.30;;;;;;;7.67;100.00;100190.88;6131013;23;20013;-86
2021/12/03 02:45:08;;;;;;;0.30;0.30;;;;;;;7.60;100.00;100182.72;6156263;23;20464;-86
2021/12/03 02:47:36;;;;;;;0.30;0.30;;;;;;;7.58;100.00;100187.38;6108553;23;20515;-86
2021/12/03 02:50:03;;;;;;;0.30;0.30;;;;;;;7.50;100.00;100192.75;6131512;23;20005;-88
2021/12/03 02:52:29;;;;;;;0.30;0.30;;;;;;;7.46;100.00;100204.78;6131546;23;20016;-87
2021/12/03 02:54:57;;;;;;;0.30;0.30;;;;;;;7.45;100.00;100208.47;6131550;23;20512;-87
2021/12/03 02:57:24;;;;;;;0.30;0.30;;;;;;;7.37;100.00;100203.97;6156446;23;20009;-87
2021/12/03 02:59:49;;;;;;;0.30;0.30;;;;;;;7.22;100.00;100195.81;6082643;23;20018;-87
2021/12/03 03:02:15;;;;;;;0.30;0.30;;;;;;;7.15;100.00;100202.00;6131512;23;20009;-87
2021/12/03 03:04:41;;;;;;;0.40;0.40;;;;;;;7.14;100.00;100214.50;6155566;23;20342;-87
2021/12/03 03:07:07;;;;;;;0.30;0.30;;;;;;;7.09;100.00;100213.34;6155849;23;20013;-86
2021/12/03 03:09:46;;;;;;;0.30;0.30;;;;;;;7.04;100.00;100217.34;6131470;23;20009;-86
2021/12/03 03:12:15;;;;;;;1.13;0.55;;;;;;;7.00;100.00;100215.16;6155866;23;20016;-86
2021/12/03 03:14:54;;;;;;;0.30;0.30;;;;;;;6.99;100.00;100214.34;6132846;23;20005;-87
2021/12/03 03:18:20;;;;;;;0.30;0.30;;;;;;;6.94;100.00;100205.97;6106469;23;20055;-86
2021/12/03 03:21:12;;;;;;;0.30;0.30;;;;;;;6.94;100.00;100202.47;6133263;23;20475;-88
2021/12/03 03:23:38;;;;;;;0.35;0.35;;;;;;;6.98;100.00;100209.97;6129399;23;20005;-87
2021/12/03 03:26:05;;;;;;;0.32;0.32;;;;;;;6.93;100.00;100212.34;6130701;23;20005;-88
2021/12/03 03:28:30;;;;;;;0.30;0.30;;;;;;;6.94;100.00;100211.31;6155720;23;20013;-87
2021/12/03 03:30:59;;;;;;;2.03;0.85;;;;;;;6.93;100.00;100209.66;6131090;23;20015;-86
2021/12/03 03:33:26;;;;;;;6.13;0.50;;;;;;;6.89;100.00;100202.97;6131139;23;20449;-86
2021/12/03 03:35:51;;;;;;;2.72;1.27;;;;;;;6.83;100.00;100206.31;6155601;23;20497;-85
2021/12/03 03:38:17;;;;;;;5.50;0.70;;;;;;;6.78;100.00;100206.81;6130670;23;20037;-87
2021/12/03 03:40:44;;;;;;;0.40;0.40;;;;;;;6.74;100.00;100197.44;6130620;23;20032;-87
2021/12/03 03:43:10;;;;;;;7.50;0.70;;;;;;;6.67;100.00;100192.91;6130776;23;20009;-86
2021/12/03 03:45:38;;;;;;;2.40;0.60;;;;;;;6.59;100.00;100197.25;6130596;23;20031;-86
2021/12/03 03:48:03;;;;;;;1.55;0.70;;;;;;;6.57;100.00;100206.44;6129401;23;20016;-87
2021/12/03 03:50:29;;;;;;;2.75;0.77;;;;;;;6.55;100.00;100206.59;6155434;23;20005;-86
2021/12/03 03:52:56;;;;;;;4.22;1.20;;;;;;;6.54;100.00;100201.41;6106577;23;20017;-86
2021/12/03 03:55:23;;;;;;;1.33;0.68;;;;;;;6.58;100.00;100200.91;6155588;23;20009;-87
2021/12/03 03:57:49;;;;;;;0.63;0.63;;;;;;;6.59;100.00;100210.59;6154697;23;20124;-85
2021/12/03 04:00:18;;;;;;;3.55;1.10;;;;;;;6.62;100.00;100209.44;6155683;23;20012;-86
2021/12/03 04:02:47;;;;;;;2.55;0.75;;;;;;;6.66;100.00;100205.44;6107568;23;20507;-87
2021/12/03 04:05:13;;;;;;;0.50;0.50;;;;;;;6.68;100.00;100199.94;6132591;23;20385;-85
2021/12/03 04:07:39;;;;;;;0.85;0.57;;;;;;;6.71;100.00;100197.75;6108414;23;20437;-86
2021/12/03 04:10:07;;;;;;;1.30;1.23;;;;;;;6.74;100.00;100196.59;6132385;23;20055;-85
2021/12/03 04:12:42;;;;;;;0.77;0.65;;;;;;;6.72;100.00;100187.91;6131833;23;20538;-87
2021/12/03 04:15:12;;;;;;;0.68;0.68;;;;;;;6.72;100.00;100188.75;6110444;23;20006;-87
2021/12/03 04:17:37;;;;;;;2.38;0.90;;;;;;;6.72;100.00;100193.25;6133581;23;20325;-86
2021/12/03 04:20:08;;;;;;;3.25;1.08;;;;;;;6.71;100.00;100194.25;6133069;23;20087;-87
2021/12/03 04:22:34;;;;;;;8.48;1.05;;;;;;;6.62;100.00;100176.56;6109103;23;20086;-85
2021/12/03 04:25:13;;;;;;;0.98;0.60;;;;;;;6.65;100.00;100174.38;6108425;23;20009;-86
2021/12/03 04:27:51;;;;;;;0.57;0.57;;;;;;;6.56;100.00;100154.00;6159267;23;20004;-87
2021/12/03 04:30:28;;;;;;;0.65;0.45;;;;;;;6.63;100.00;100167.53;6133562;23;20005;-86
2021/12/03 04:33:02;;;;;;;2.35;0.40;;;;;;;6.56;100.00;100164.66;6084188;23;20009;-87
2021/12/03 04:35:40;;;;;;;2.92;1.13;;;;;;;6.56;100.00;100162.88;6053045;23;20089;-86
2021/12/03 04:38:13;;;;;;;2.83;0.63;;;;;;;6.56;100.00;100167.34;6044788;23;20014;-86
2021/12/03 04:40:44;;;;;;;0.85;0.75;;;;;;;6.56;100.00;100165.53;6127264;23;20012;-85
2021/12/03 04:43:13;;;;;;;3.20;0.60;;;;;;;6.52;100.00;100150.00;6108549;23;20441;-86
2021/12/03 04:45:42;;;;;;;2.50;0.43;;;;;;;6.51;100.00;100153.63;6085067;23;20019;-87
2021/12/03 04:48:13;;;;;;;0.50;0.50;;;;;;;6.57;100.00;100159.19;6134780;23;20508;-85
2021/12/03 04:50:44;;;;;;;4.18;1.10;;;;;;;6.50;100.00;100135.97;6158022;23;20016;-85
2021/12/03 04:53:55;;;;;;;1.35;0.50;;;;;;;6.57;100.00;100147.66;6132932;23;20453;-88
2021/12/03 04:56:21;;;;;;;1.55;1.13;;;;;;;6.48;100.00;100148.63;6119112;23;20012;-87
2021/12/03 04:59:09;;;;;;;1.00;0.80;;;;;;;6.45;100.00;100139.13;6107046;23;20012;-89
2021/12/03 05:01:45;;;;;;;0.55;0.55;;;;;;;6.44;100.00;100136.63;6133086;23;20041;-86
2021/12/03 05:04:36;;;;;;;1.25;0.95;;;;;;;6.47;100.00;100139.78;6108200;23;20087;-87
2021/12/03 05:09:36;;;;;;;0.68;0.68;;;;;;;6.47;100.00;100145.13;6133600;23;20040;-86
2021/12/03 05:12:03;;;;;;;0.82;0.82;;;;;;;6.48;100.00;100137.94;6132498;23;20009;-87
2021/12/03 05:14:29;;;;;;;6.22;0.70;;;;;;;6.42;100.00;100134.09;6132734;23;20015;-87
2021/12/03 05:16:56;;;;;;;0.70;0.60;;;;;;;6.44;100.00;100147.31;6108892;23;20452;-86
2021/12/03 05:19:22;;;;;;;0.80;0.80;;;;;;;6.41;100.00;100145.81;6157654;23;20009;-87
2021/12/03 05:21:48;;;;;;;3.35;1.70;;;;;;;6.38;100.00;100148.81;6157969;23;20410;-87
2021/12/03 05:24:14;;;;;;;1.05;0.95;;;;;;;6.34;100.00;100152.78;6133265;23;20009;-87
2021/12/03 05:26:44;;;;;;;1.45;0.70;;;;;;;6.31;100.00;100153.94;6134427;23;20005;-86
2021/12/03 05:29:10;;;;;;;5.20;0.75;;;;;;;6.25;100.00;100146.59;6157516;23;20009;-86
2021/12/03 05:31:37;;;;;;;6.60;0.73;;;;;;;6.19;100.00;100149.91;6132810;23;20429;-86
2021/12/03 05:34:05;;;;;;;0.85;0.75;;;;;;;6.20;100.00;100164.09;6132856;23;20341;-88
2021/12/03 05:36:31;;;;;;;5.68;1.15;;;;;;;6.15;100.00;100157.41;6156964;23;20009;-85
2021/12/03 05:38:57;;;;;;;4.22;1.25;;;;;;;6.15;100.00;100151.22;6132392;23;20017;-88
2021/12/03 05:41:23;;;;;;;0.90;0.68;;;;;;;6.10;100.00;100145.53;6157547;23;20005;-86
2021/12/03 05:43:49;;;;;;;10.25;1.83;;;;;;;6.10;100.00;100148.22;6157275;23;20303;-87
2021/12/03 05:46:14;;;;;;;3.92;0.50;;;;;;;6.04;100.00;100138.19;6132476;23;20012;-87
2021/12/03 05:48:40;;;;;;;13.38;2.42;;;;;;;5.90;100.00;100131.59;6132649;23;20000;-87
2021/12/03 05:51:06;;;;;;;16.92;1.15;;;;;;;5.86;100.00;100148.94;6108784;23;20002;-86
2021/12/03 05:53:33;;;;;;;1.23;0.90;;;;;;;5.78;100.00;100156.91;6183431;23;20012;-86
2021/12/03 05:56:02;;;;;;;1.08;1.00;;;;;;;5.72;100.00;100161.88;6158051;23;19997;-85
2021/12/03 05:58:27;;;;;;;1.17;0.70;;;;;;;5.66;100.00;100154.50;6156163;23;20008;-87
2021/12/03 06:00:53;;;;;;;0.63;0.63;;;;;;;5.66;100.00;100159.84;6132398;23;20033;-86
2021/12/03 06:03:21;;;;;;;4.40;1.27;;;;;;;5.67;100.00;100168.69;6132085;23;20460;-87
2021/12/03 06:05:47;;;;;;;3.83;0.80;;;;;;;5.68;100.00;100168.50;6182589;23;20005;-87
2021/12/03 06:08:13;;;;;;;3.38;1.23;;;;;;;5.67;100.00;100166.84;6156734;23;20422;-86
2021/12/03 06:10:38;;;;;;;8.10;1.30;;;;;;;5.63;100.00;100169.97;6131612;23;20059;-86
2021/12/03 06:13:04;;;;;;;1.00;0.95;;;;;;;5.63;100.00;100162.81;6156113;23;20034;-86
2021/12/03 06:15:30;;;;;;;2.47;1.25;;;;;;;5.60;100.00;100157.78;6106844;23;20025;-85
2021/12/03 06:17:57;;;;;;;9.68;1.75;;;;;;;5.59;100.00;100164.13;6132200;23;20016;-86
2021/12/03 06:20:24;;;;;;;0.45;0.45;;;;;;;5.61;100.00;100167.47;6157073;23;20001;-86
2021/12/03 06:22:50;;;;;;;1.45;0.63;;;;;;;5.65;100.00;100157.31;6132441;23;20017;-86
2021/12/03 06:25:16;;;;;;;3.80;1.27;;;;;;;5.70;100.00;100161.19;6156052;23;20074;-88
2021/12/03 06:27:42;;;;;;;12.48;1.13;;;;;;;5.70;100.00;100165.69;6107538;23;20020;-87
2021/12/03 06:30:11;;;;;;;6.47;0.93;;;;;;;5.70;100.00;100166.53;6156230;23;20005;-87
2021/12/03 06:32:37;;;;;;;3.72;1.35;;;;;;;5.69;100.00;100172.03;6106348;23;20413;-87
2021/12/03 06:35:06;;;;;;;3.80;1.05;;;;;;;5.67;100.00;100172.19;6106500;23;20013;-84
2021/12/03 06:37:31;;;;;;;11.43;1.30;;;;;;;5.65;100.00;100168.00;6131165;23;20060;-84
2021/12/03 06:39:57;;;;;;;2.97;1.38;;;;;;;5.68;100.00;100176.50;6156204;23;20000;-86
2021/12/03 06:42:23;;;;;;;8.63;0.98;;;;;;;5.69;100.00;100169.38;6131394;23;20027;-87
2021/12/03 06:44:49;;;;;;;8.18;1.23;;;;;;;5.72;100.00;100161.88;6130887;23;20020;-87
2021/12/03 06:47:14;;;;;;;1.33;1.10;;;;;;;5.71;100.00;100160.19;6131872;23;20055;-87
2021/12/03 06:49:40;;;;;;;2.63;1.30;;;;;;;5.70;100.00;100161.19;6106803;23;20001;-87
2021/12/03 06:52:10;;;;;;;2.35;0.85;;;;;;;5.72;100.00;100153.88;6106910;23;20005;-86
2021/12/03 06:54:36;;;;;;;8.15;1.17;;;;;;;5.77;100.00;100158.72;6157315;23;20036;-86
2021/12/03 06:57:04;;;;;;;6.00;0.60;;;;;;;5.79;100.00;100138.03;6181749;23;20241;-87
2021/12/03 06:59:31;;;;;;;8.70;1.00;;;;;;;5.81;100.00;100138.72;6156787;23;20013;-87
2021/12/03 07:01:57;;;;;;;3.60;0.90;;;;;;;5.78;100.00;100147.06;6132148;23;20084;-86
2021/12/03 07:04:22;;;;;;;3.13;1.50;;;;;;;5.77;100.00;100137.38;6131640;23;20041;-87
2021/12/03 07:06:48;;;;;;;1.73;0.90;;;;;;;5.73;100.00;100122.69;6156134;23;20011;-87
2021/12/03 07:09:14;;;;;;;2.70;1.15;;;;;;;5.75;100.00;100130.53;6156340;23;20067;-89
2021/12/03 07:11:41;;;;;;;5.45;1.48;;;;;;;5.77;100.00;100125.84;6156540;23;20005;-86
2021/12/03 07:14:09;;;;;;;5.68;1.63;;;;;;;5.79;100.00;100115.88;6156620;23;20010;-86
2021/12/03 07:16:37;;;;;;;1.63;1.08;;;;;;;5.81;100.00;100132.56;6156639;23;20005;-88
2021/12/03 07:19:04;;;;;;;7.07;1.85;;;;;;;5.79;100.00;100129.22;6107360;23;20438;-86
2021/12/03 07:21:30;;;;;;;1.83;0.93;;;;;;;5.79;100.00;100131.88;6132036;23;20449;-87
2021/12/03 07:23:56;;;;;;;5.47;0.70;;;;;;;5.73;100.00;100125.34;6155015;23;20060;-86
2021/12/03 07:26:24;;;;;;;1.23;0.75;;;;;;;5.76;100.00;100126.88;6155988;23;20001;-85
2021/12/03 07:28:51;;;;;;;2.60;0.73;;;;;;;5.71;100.00;100125.50;6130858;23;20005;-87
2021/12/03 07:31:17;;;;;;;2.45;0.73;;;;;;;5.66;100.00;100133.16;6130749;23;20005;-86
2021/12/03 07:33:43;;;;;;;3.60;0.85;;;;;;;5.63;100.00;100138.81;6107028;23;20092;-86
2021/12/03 07:36:08;;;;;;;0.95;0.93;;;;;;;5.62;100.00;100145.16;6132528;23;20093;-87
2021/12/03 07:38:35;;;;;;;6.38;1.23;;;;;;;5.62;100.00;100146.97;6157305;23;20437;-86
2021/12/03 07:41:02;;;;;;;2.03;0.85;;;;;;;5.62;100.00;100162.97;6108728;23;20016;-87
2021/12/03 07:43:28;;;;;;;2.85;0.93;;;;;;;5.61;100.00;100159.47;6133084;23;20099;-87
2021/12/03 07:45:54;;;;;;;1.65;0.77;;;;;;;5.63;100.00;100145.97;6157106;23;20001;-86
2021/12/03 07:48:22;;;;;;;4.05;1.60;;;;;;;5.64;100.00;100131.66;6157669;23;20373;-86
2021/12/03 07:50:48;;;;;;;6.68;1.30;;;;;;;5.64;100.00;100119.16;6132733;23;20064;-88
2021/12/03 07:53:17;;;;;;;2.88;1.35;;;;;;;5.64;100.00;100102.31;6157827;23;20012;-85
2021/12/03 07:55:45;;;;;;;7.43;1.00;;;;;;;5.63;100.00;100106.78;6132368;23;20020;-85
2021/12/03 07:58:10;;;;;;;3.17;1.10;;;;;;;5.64;100.00;100110.31;6157020;23;20009;-90
2021/12/03 08:00:36;;;;;;;5.50;1.02;;;;;;;5.59;100.00;100101.97;6108031;23;20009;-88
2021/12/03 08:03:02;;;;;;;5.68;1.40;;;;;;;5.59;100.00;100096.63;6156890;23;20123;-88
2021/12/03 08:05:28;;;;;;;5.78;0.90;;;;;;;5.57;100.00;100096.78;6131602;23;20001;-86
2021/12/03 08:07:54;;;;;;;3.85;1.40;;;;;;;5.53;100.00;100087.44;6132417;23;20302;-88
2021/12/03 08:10:20;;;;;;;3.70;2.65;;;;;;;5.57;100.00;100079.94;6108030;23;20017;-86
2021/12/03 08:12:46;;;;;;;2.97;2.28;;;;;;;5.56;100.00;100084.44;6132041;23;20442;-87
2021/12/03 08:15:14;;;;;;;5.65;2.13;;;;;;;5.53;100.00;100079.44;6108147;23;20337;-88
2021/12/03 08:17:40;;;;;;;5.45;2.28;;;;;;;5.55;100.00;100090.75;6132734;23;20008;-88
2021/12/03 08:20:07;;;;;;;5.82;2.75;;;;;;;5.54;100.00;100085.59;6130950;23;20441;-87
2021/12/03 08:22:32;;;;;;;7.22;2.55;;;;;;;5.54;100.00;100094.44;6157348;23;20028;-85
2021/12/03 08:24:58;;;;;;;6.97;2.97;;;;;;;5.55;100.00;100100.59;6156690;23;20414;-86
2021/12/03 08:27:24;;;;;;;4.45;2.42;;;;;;;5.54;100.00;100086.44;6183139;23;20294;-86
2021/12/03 08:29:49;;;;;;;3.78;2.75;;;;;;;5.56;100.00;100088.91;6156277;23;20009;-85
2021/12/03 08:32:15;;;;;;;7.18;2.47;;;;;;;5.58;100.00;100082.44;6132266;23;20009;-87
2021/12/03 08:34:44;;;;;;;7.68;2.83;;;;;;;5.59;100.00;100086.78;6156037;23;20461;-86
2021/12/03 08:37:10;;;;;;;6.85;2.55;;;;;;;5.60;100.00;100091.13;6182987;23;20059;-85
2021/12/03 08:39:36;;;;;;;4.85;2.42;;;;;;;5.59;100.00;100092.13;6131949;23;20019;-86
2021/12/03 08:42:04;;;;;;;10.27;3.40;;;;;;;5.54;100.00;100086.44;6156832;23;20044;-87
2021/12/03 08:44:30;;;;;;;8.93;2.83;;;;;;;5.56;100.00;100088.91;6132986;23;20012;-86
2021/12/03 08:47:02;;;;;;;7.60;1.77;;;;;;;5.54;100.00;100085.59;6105930;23;20009;-86
2021/12/03 08:49:38;;;;;;;5.38;2.55;;;;;;;5.52;100.00;100085.75;6109255;23;20031;-86
2021/12/03 08:54:52;;;;;;;6.80;2.65;;;;;;;5.55;100.00;100069.44;6131515;23;20027;-88
2021/12/03 08:57:25;;;;;;;9.20;2.00;;;;;;;5.61;100.00;100084.81;6135749;23;20048;-86
2021/12/03 08:59:55;;;;;;;9.57;3.22;;;;;;;5.60;100.00;100084.97;6132608;23;20085;-85
2021/12/03 09:02:22;;;;;;;9.82;3.28;;;;;;;5.64;100.00;100075.66;6107724;23;20001;-85
2021/12/03 09:04:49;;;;;;;6.90;3.22;;;;;;;5.69;100.00;100068.00;6131947;23;20001;-87
2021/12/03 09:07:15;;;;;;;16.25;3.28;;;;;;;5.66;100.00;100066.50;6108054;23;20005;-87
2021/12/03 09:09:41;;;;;;;7.10;2.38;;;;;;;5.69;100.00;100074.16;6131115;23;20001;-87
2021/12/03 09:12:10;;;;;;;5.90;2.60;;;;;;;5.70;100.00;100067.81;6108005;23;20008;-88
2021/12/03 09:19:38;;;;;;;13.90;2.67;;;;;;;5.67;100.00;100065.47;6133504;23;20001;-86
2021/12/03 09:22:04;;;;;;;10.43;2.97;;;;;;;5.67;100.00;100052.16;6109421;23;20373;-86
2021/12/03 09:24:36;;;;;;;4.63;1.92;;;;;;;5.70;100.00;100059.81;6107216;23;20012;-85
2021/12/03 09:27:01;;;;;;;13.93;2.58;;;;;;;5.70;100.00;100054.50;6108086;23;20032;-87
2021/12/03 09:29:35;;;;;;;7.15;3.22;;;;;;;5.70;100.00;100053.66;6157417;23;20448;-87
2021/12/03 09:32:01;;;;;;;;;;;;;;;5.76;100.00;100065.50;6157039;23;20276;-86
2021/12/03 09:34:30;;;;;;;8.85;3.25;;;;;;;5.76;100.00;100060.19;6131969;23;20261;-86
2021/12/03 09:36:56;;;;;;;7.93;2.47;;;;;;;5.78;100.00;100059.03;6157177;23;20032;-87
2021/12/03 09:39:24;;;;;;;11.75;2.50;;;;;;;5.82;100.00;100046.19;6132376;23;20088;-86
2021/12/03 09:41:53;;;;;;;10.57;2.38;;;;;;;5.84;100.00;100049.53;6131745;23;20334;-86
2021/12/03 09:44:20;;;;;;;4.63;2.20;;;;;;;5.85;100.00;100053.88;6131892;23;20326;-90
2021/12/03 09:46:46;;;;;;;14.05;2.03;;;;;;;5.88;100.00;100045.56;6132881;23;20377;-86
2021/12/03 09:52:10;;;;;;;3.15;1.75;;;;;;;5.93;100.00;100029.88;6157716;23;20009;-90
2021/12/03 09:54:37;;;;;;;6.47;2.65;;;;;;;5.96;100.00;100045.59;6156137;23;20426;-85
2021/12/03 09:57:09;;;;;;;10.55;2.35;;;;;;;6.01;100.00;100029.94;6158846;23;20521;-86
2021/12/03 10:12:43;;;;;;;5.53;1.80;;;;;;;6.31;100.00;100015.09;6183519;23;20005;-88
2021/12/03 10:18:11;;;;;;;5.50;1.38;;;;;;;6.44;100.00;100008.44;6157056;23;20004;-87
2021/12/03 10:50:24;;;;;;;13.18;2.88;;;;;;;6.58;100.00;99978.38;6158497;23;20067;-89
2021/12/03 10:56:25;;;;;;;9.52;1.95;;;;;;;6.63;100.00;99965.34;6157244;23;20096;-89
2021/12/03 11:06:55;;;;;;;29.60;11.55;;;;;;;6.79;100.00;99943.09;6161285;23;20004;-88
2021/12/03 11:18:33;;;;;;;21.30;6.43;;;;;;;6.89;100.00;99926.88;6161130;23;20479;-87
2021/12/03 11:28:54;;;;;;;25.90;5.97;;;;;;;7.05;100.00;99897.41;6131572;23;20009;-89
2021/12/03 13:20:02;;;;;;;13.98;2.83;;;;;;;7.48;100.00;99649.91;6162024;23;20007;-90
2021/12/03 14:01:32;;;;;;;27.45;8.98;;;;;;;7.25;100.00;99582.28;6136617;23;20005;-88
2021/12/03 14:12:57;;;;;;;24.80;9.57;;;;;;;7.19;100.00;99577.69;6161533;23;20009;-87
2021/12/03 14:19:10;;;;;;;20.10;5.80;;;;;;;7.14;100.00;99572.88;6120335;23;20094;-88
2021/12/03 14:55:46;;;;;;;68.88;29.63;;;;;;;7.13;100.00;99543.69;6156337;23;20005;-89
2021/12/03 15:01:00;;;;;;;21.63;10.27;;;;;;;7.04;100.00;99534.94;6160404;23;20001;-88
2021/12/03 15:04:02;;;;;;;22.25;9.80;;;;;;;7.00;100.00;99523.75;6183622;23;20329;-88
2021/12/03 15:06:51;;;;;;;40.20;12.57;;;;;;;7.03;100.00;99533.25;6137629;23;20413;-87
2021/12/03 15:09:26;;;;;;;35.83;10.27;;;;;;;7.02;100.00;99519.06;6161749;23;20013;-88
2021/12/03 15:35:15;;;;;;;43.63;17.83;;;;;;;7.03;100.00;99523.38;6135671;23;20007;-88
2021/12/03 16:04:19;;;;;;;139.73;34.92;;;;;;;6.82;100.00;99496.53;6137648;23;20005;-89
2021/12/03 16:12:11;;;;;;;212.85;47.38;;;;;;;6.78;100.00;99492.59;6158568;23;20016;-88
2021/12/03 16:25:38;;;;;;;27.60;6.97;;;;;;;6.70;100.00;99471.31;6158263;23;20005;-90
2021/12/03 16:43:33;;;;;;;28.02;6.78;;;;;;;6.68;100.00;99484.00;6137937;23;20012;-89
2021/12/03 16:52:32;;;;;;;37.10;9.73;;;;;;;6.67;100.00;99474.31;6136736;23;20048;-89
2021/12/03 16:55:03;;;;;;;23.20;7.25;;;;;;;6.69;100.00;99466.97;6158020;23;20021;-89
2021/12/03 16:57:33;;;;;;;18.73;5.60;;;;;;;6.65;100.00;99468.34;6109324;23;20504;-89
2021/12/03 17:08:31;;;;;;;43.58;14.60;;;;;;;6.69;100.00;99483.00;6157388;23;20383;-87
2021/12/03 17:11:34;;;;;;;50.80;23.52;;;;;;;6.67;100.00;99474.31;6139011;23;20380;-89
2021/12/03 17:14:12;;;;;;;29.63;8.35;;;;;;;6.66;100.00;99472.66;6183789;23;20441;-87
2021/12/03 17:49:14;;;;;;;75.60;25.02;;;;;;;6.66;100.00;99475.34;6132720;23;20421;-92
2021/12/03 17:56:53;;;;;;;37.50;12.40;;;;;;;6.69;100.00;99478.47;6157561;23;20032;-87
2021/12/03 17:59:30;;;;;;;36.90;9.30;;;;;;;6.67;100.00;99479.66;6108321;23;20028;-87
2021/12/03 18:02:14;;;;;;;21.60;6.10;;;;;;;6.64;100.00;99480.84;6156109;23;20008;-87
2021/12/03 18:10:36;;;;;;;24.83;8.57;;;;;;;6.58;100.00;99487.75;6102516;23;20481;-90
2021/12/03 18:53:59;;;;;;;35.35;10.52;;;;;;;6.58;100.00;99449.53;6157018;23;20005;-87
2021/12/03 18:59:15;;;;;;;35.00;12.05;;;;;;;6.63;100.00;99449.81;6159518;23;19997;-86
2021/12/03 19:01:41;;;;;;;28.45;10.75;;;;;;;6.59;100.00;99449.38;6154946;23;20005;-89
2021/12/03 19:09:23;;;;;;;59.50;14.35;;;;;;;6.55;100.00;99450.72;6130759;23;20040;-89
2021/12/03 19:11:58;;;;;;;42.25;11.10;;;;;;;6.55;100.00;99445.41;6131986;23;20056;-89
2021/12/03 19:14:25;;;;;;;42.95;10.27;;;;;;;6.56;100.00;99449.75;6132241;23;20023;-88
2021/12/03 19:16:54;;;;;;;30.40;7.32;;;;;;;6.55;100.00;99448.06;6155198;23;20040;-89
2021/12/03 19:19:20;;;;;;;32.78;8.73;;;;;;;6.54;100.00;99443.75;6130699;23;20430;-87
2021/12/03 19:21:48;;;;;;;19.40;5.55;;;;;;;6.56;100.00;99449.75;6130682;23;20005;-89
2021/12/03 19:24:16;;;;;;;19.05;5.28;;;;;;;6.54;100.00;99450.94;6130675;23;20487;-89
2021/12/03 19:26:45;;;;;;;23.98;6.03;;;;;;;6.55;100.00;99468.59;6130099;23;20063;-87
2021/12/03 19:29:17;;;;;;;34.10;7.65;;;;;;;6.55;100.00;99461.41;6130989;23;20001;-87
2021/12/03 19:31:44;;;;;;;0.90;0.82;;;;;;;6.54;100.00;99459.78;6126869;23;20013;-87
2021/12/03 19:34:11;;;;;;;29.55;17.35;;;;;;;6.55;100.00;99461.41;6107693;23;20013;-87